Terminal Aerodrome Forecast
Issued by NWS Northern Indiana

Home | Current Version | Previous Version | Text Only | Print | Product List | Glossary On
Versions: 1 2 3 4 5 6 7 8 9 10 11 12 13 14 15 16 17
000
FTUS43 KIWX 131700
TAFFWA
TAF
KFWA 131720Z 1318/1418 23019G27KT P6SM BKN050
     FM140000 19018G24KT P6SM BKN060
     FM140800 20020G26KT 5SM -SHRA VCTS BKN025CB
     FM141500 26022G30KT P6SM OVC015=

USA.gov is the U.S. government's official web portal to all federal, state and local government web resources and services.